Time;durP1;ratioP1;P1;durP2;ratioP2;P2;SDS_P1;SDS_P2;PMS_P1;PMS_P2;Temp;Humidity;BMP_temperature;BMP_pressure;BME280_temperature;BME280_humidity;BME280_pressure;Samples;Min_cycle;Max_cycle;Signal;HPM_P1;HPM_P2
2021/04/29 00:00:30;;;;;;;4.93;3.93;;;11.40;73.40;;;;;;5072834;28;20994;-65
2021/04/29 00:02:56;;;;;;;5.10;3.73;;;11.40;74.40;;;;;;5073322;28;20411;-66
2021/04/29 00:05:24;;;;;;;4.67;4.10;;;11.30;75.30;;;;;;5073317;28;20215;-66
2021/04/29 00:07:49;;;;;;;3.67;3.37;;;11.30;76.60;;;;;;5073103;28;20196;-66
2021/04/29 00:10:19;;;;;;;4.47;4.07;;;11.30;77.30;;;;;;5072776;28;20485;-65
2021/04/29 00:12:45;;;;;;;4.23;3.50;;;11.30;77.90;;;;;;5073058;28;20175;-64
2021/04/29 00:15:12;;;;;;;5.23;3.40;;;11.30;78.70;;;;;;5073020;28;20886;-66
2021/04/29 00:17:38;;;;;;;6.27;4.30;;;11.30;79.20;;;;;;5072923;28;20429;-65
2021/04/29 00:20:06;;;;;;;4.83;4.43;;;11.20;80.20;;;;;;5072628;28;20913;-64
2021/04/29 00:22:32;;;;;;;3.90;3.60;;;11.10;80.80;;;;;;5072857;28;20205;-65
2021/04/29 00:24:58;;;;;;;4.43;3.47;;;11.20;81.90;;;;;;5072903;28;20403;-64
2021/04/29 00:27:23;;;;;;;4.27;3.50;;;11.20;82.60;;;;;;5072497;28;20199;-65
2021/04/29 00:29:49;;;;;;;5.03;4.20;;;11.30;91.40;;;;;;5072295;28;20652;-65
2021/04/29 00:32:14;;;;;;;4.60;3.87;;;11.20;83.80;;;;;;5072727;28;20172;-65
2021/04/29 00:34:40;;;;;;;4.43;3.80;;;11.10;84.10;;;;;;5072603;28;20173;-65
2021/04/29 00:37:05;;;;;;;5.30;4.07;;;11.20;84.50;;;;;;5072706;28;20167;-66
2021/04/29 00:39:31;;;;;;;4.40;4.10;;;11.10;85.30;;;;;;5072167;28;20172;-65
2021/04/29 00:41:57;;;;;;;4.80;4.30;;;11.10;85.50;;;;;;5072323;28;20189;-64
2021/04/29 00:44:22;;;;;;;6.17;3.77;;;11.10;86.10;;;;;;5072388;28;20523;-65
2021/04/29 00:46:48;;;;;;;4.43;4.03;;;11.10;86.50;;;;;;5072414;28;20163;-65
2021/04/29 00:49:16;;;;;;;4.63;4.10;;;11.00;87.40;;;;;;5071838;28;20208;-65
2021/04/29 00:51:42;;;;;;;4.10;3.80;;;11.00;87.20;;;;;;5072404;28;20205;-65
2021/04/29 00:54:07;;;;;;;7.03;3.93;;;10.90;87.50;;;;;;5072355;28;20843;-64
2021/04/29 00:56:33;;;;;;;4.03;3.73;;;10.90;88.20;;;;;;5072038;28;20171;-65
2021/04/29 00:58:58;;;;;;;3.90;3.60;;;10.80;88.20;;;;;;5071771;28;20279;-65
2021/04/29 01:01:24;;;;;;;5.07;4.57;;;10.90;88.60;;;;;;5072045;28;20227;-65
2021/04/29 01:03:58;;;;;;;4.10;3.80;;;10.80;88.90;;;;;;5072114;28;20323;-65
2021/04/29 01:06:48;;;;;;;5.17;4.70;;;10.80;89.10;;;;;;5072099;28;20834;-64
2021/04/29 01:09:28;;;;;;;4.83;4.30;;;10.70;89.90;;;;;;5070907;28;20476;-64
2021/04/29 01:12:03;;;;;;;5.77;4.80;;;10.60;90.00;;;;;;5071984;28;20533;-65
2021/04/29 01:14:30;;;;;;;5.93;4.47;;;10.50;90.40;;;;;;5072001;28;20405;-65
2021/04/29 01:16:57;;;;;;;4.80;4.40;;;10.50;90.70;;;;;;5071961;28;20777;-65
2021/04/29 01:19:34;;;;;;;5.60;5.07;;;10.40;91.10;;;;;;5071555;28;20406;-65
2021/04/29 01:22:00;;;;;;;4.60;4.20;;;10.40;91.20;;;;;;5071891;28;20421;-65
2021/04/29 01:24:28;;;;;;;6.10;4.70;;;10.40;91.50;;;;;;5071768;28;20410;-65
2021/04/29 01:27:02;;;;;;;5.30;4.80;;;10.30;91.40;;;;;;5071944;28;20182;-65
2021/04/29 01:29:30;;;;;;;9.13;5.40;;;10.20;91.70;;;;;;5071462;28;20847;-66
2021/04/29 01:31:58;;;;;;;5.03;4.53;;;10.20;92.00;;;;;;5070472;28;20575;-66
2021/04/29 01:34:28;;;;;;;5.80;5.27;;;10.10;92.30;;;;;;5071912;28;20425;-65
2021/04/29 01:36:55;;;;;;;5.47;4.63;;;10.00;92.60;;;;;;5071839;28;20413;-65
2021/04/29 01:39:21;;;;;;;6.00;5.10;;;10.00;92.70;;;;;;5071237;28;20420;-64
2021/04/29 01:41:53;;;;;;;5.30;4.80;;;10.00;92.80;;;;;;5071773;28;20918;-64
2021/04/29 01:44:20;;;;;;;6.77;6.17;;;9.90;93.70;;;;;;5071773;28;20405;-65
2021/04/29 01:46:46;;;;;;;8.37;6.40;;;9.90;93.80;;;;;;5071464;28;20421;-64
2021/04/29 01:49:13;;;;;;;6.80;6.13;;;9.80;94.00;;;;;;5071292;28;20540;-65
2021/04/29 01:51:40;;;;;;;8.37;6.33;;;9.80;94.10;;;;;;5071532;28;20437;-65
2021/04/29 01:54:08;;;;;;;6.73;6.10;;;9.70;94.30;;;;;;5071560;28;20467;-64
2021/04/29 01:56:35;;;;;;;7.63;6.00;;;9.60;94.60;;;;;;5071531;28;20569;-65
2021/04/29 01:59:00;;;;;;;6.73;5.60;;;9.60;94.90;;;;;;5071050;28;20421;-65
2021/04/29 02:01:28;;;;;;;6.80;5.90;;;9.50;95.10;;;;;;5071280;28;20444;-65
2021/04/29 02:03:55;;;;;;;9.13;6.63;;;9.50;95.50;;;;;;5071701;28;20267;-65
2021/04/29 02:06:21;;;;;;;7.97;7.13;;;9.50;95.50;;;;;;5071501;28;20410;-65
2021/04/29 02:08:46;;;;;;;9.27;6.37;;;9.40;95.80;;;;;;5070940;28;20558;-65
2021/04/29 02:11:14;;;;;;;8.73;7.70;;;9.40;96.10;;;;;;5071400;28;20846;-65
2021/04/29 02:13:42;;;;;;;10.30;7.53;;;9.30;96.40;;;;;;5071342;28;20216;-65
2021/04/29 02:16:14;;;;;;;9.20;8.40;;;9.40;96.40;;;;;;5074901;28;20404;-65
2021/04/29 02:18:46;;;;;;;7.40;6.63;;;9.30;96.60;;;;;;5074804;28;20921;-64
2021/04/29 02:21:16;;;;;;;7.23;6.40;;;9.20;96.70;;;;;;5075374;28;20490;-65
2021/04/29 02:23:45;;;;;;;8.27;6.03;;;9.20;97.10;;;;;;5075242;28;20411;-64
2021/04/29 02:26:13;;;;;;;7.07;6.43;;;9.20;97.10;;;;;;5075116;28;20456;-65
2021/04/29 02:28:39;;;;;;;9.33;7.33;;;9.10;97.30;;;;;;5074698;28;20466;-64
2021/04/29 02:31:05;;;;;;;8.33;6.93;;;9.10;97.40;;;;;;5074925;28;20436;-65
2021/04/29 02:33:31;;;;;;;8.80;5.90;;;9.00;97.50;;;;;;5075182;28;20811;-64
2021/04/29 02:35:57;;;;;;;12.13;6.77;;;9.00;97.50;;;;;;5074955;28;20438;-65
2021/04/29 02:38:23;;;;;;;7.60;6.67;;;9.00;97.70;;;;;;5074506;28;20412;-64
2021/04/29 02:40:50;;;;;;;8.37;7.57;;;9.00;97.90;;;;;;5074696;28;20285;-64
2021/04/29 02:43:17;;;;;;;10.63;7.83;;;9.00;97.90;;;;;;5074829;28;20905;-65
2021/04/29 02:45:43;;;;;;;9.37;8.00;;;9.00;97.80;;;;;;5074819;28;20437;-65
2021/04/29 02:48:11;;;;;;;7.83;7.03;;;9.00;98.00;;;;;;5074454;28;20444;-63
2021/04/29 02:50:39;;;;;;;9.33;8.50;;;8.90;97.80;;;;;;5074562;28;20426;-65
2021/04/29 02:53:05;;;;;;;9.53;7.20;;;8.90;98.20;;;;;;5074662;28;20404;-65
2021/04/29 02:55:31;;;;;;;13.00;8.80;;;8.90;98.40;;;;;;5074611;28;20917;-66
2021/04/29 02:58:01;;;;;;;9.07;6.67;;;8.90;98.60;;;;;;5074402;28;20217;-66
2021/04/29 03:00:28;;;;;;;6.70;6.10;;;8.90;98.70;;;;;;5074268;28;20671;-65
2021/04/29 03:02:54;;;;;;;8.50;7.60;;;8.80;98.60;;;;;;5074424;28;20420;-65
2021/04/29 03:05:19;;;;;;;8.53;7.60;;;8.70;98.50;;;;;;5074533;28;20413;-65
2021/04/29 03:07:45;;;;;;;7.53;6.90;;;8.80;98.80;;;;;;5074144;28;20441;-65
2021/04/29 03:10:12;;;;;;;10.10;7.40;;;8.70;98.80;;;;;;5074003;28;20196;-65
2021/04/29 03:12:38;;;;;;;10.13;7.57;;;8.70;99.00;;;;;;5074287;28;20189;-64
2021/04/29 03:15:05;;;;;;;8.67;7.97;;;8.80;99.20;;;;;;5074306;28;20417;-65
2021/04/29 03:17:31;;;;;;;11.63;8.43;;;8.70;99.10;;;;;;5074357;28;20789;-65
2021/04/29 03:19:56;;;;;;;9.53;7.77;;;8.70;99.90;;;;;;5073747;28;20416;-64
2021/04/29 03:22:22;;;;;;;8.70;7.57;;;8.70;99.70;;;;;;5074011;28;20190;-65
2021/04/29 03:24:49;;;;;;;11.10;9.40;;;8.70;99.50;;;;;;5074171;28;20219;-65
2021/04/29 03:27:16;;;;;;;10.03;9.03;;;8.60;99.80;;;;;;5072871;28;20185;-64
2021/04/29 03:29:42;;;;;;;9.27;8.47;;;8.60;99.90;;;;;;5073543;28;20407;-65
2021/04/29 03:32:07;;;;;;;12.47;10.30;;;8.50;99.90;;;;;;5074000;28;20466;-64
2021/04/29 03:34:33;;;;;;;11.90;9.80;;;8.60;99.90;;;;;;5073942;28;20160;-64
2021/04/29 03:36:59;;;;;;;12.00;10.53;;;8.60;99.90;;;;;;5073747;28;20243;-64
2021/04/29 03:39:24;;;;;;;13.97;9.23;;;8.60;99.90;;;;;;5073407;28;20168;-66
2021/04/29 03:41:50;;;;;;;10.40;9.40;;;8.50;99.90;;;;;;5073791;28;20188;-65
2021/04/29 03:44:16;;;;;;;12.17;9.47;;;8.50;99.90;;;;;;5073692;28;20164;-65
2021/04/29 03:46:41;;;;;;;11.23;10.00;;;8.40;99.90;;;;;;5073717;28;20918;-65
2021/04/29 03:49:07;;;;;;;12.17;10.97;;;8.40;99.90;;;;;;5073167;28;20203;-64
2021/04/29 03:51:33;;;;;;;11.03;10.00;;;8.40;99.90;;;;;;5073525;28;20210;-65
2021/04/29 03:53:58;;;;;;;12.70;9.67;;;8.40;99.90;;;;;;5073530;28;20251;-65
2021/04/29 03:56:24;;;;;;;12.60;10.43;;;8.30;99.90;;;;;;5073445;28;20627;-65
2021/04/29 03:58:49;;;;;;;11.23;9.20;;;8.20;99.90;;;;;;5073015;28;20213;-64
2021/04/29 04:01:15;;;;;;;9.83;8.93;;;8.30;99.90;;;;;;5073256;28;20647;-65
2021/04/29 04:03:41;;;;;;;11.87;9.93;;;8.90;99.90;;;;;;5073327;28;20170;-65
2021/04/29 04:06:06;;;;;;;11.10;9.97;;;8.30;99.90;;;;;;5073115;28;20698;-65
2021/04/29 04:08:32;;;;;;;13.40;9.70;;;8.20;99.90;;;;;;5072732;28;20196;-65
2021/04/29 04:10:58;;;;;;;11.87;9.63;;;8.20;99.90;;;;;;5073047;28;20660;-65
2021/04/29 04:13:23;;;;;;;12.73;9.77;;;8.20;99.90;;;;;;5073067;28;20231;-65
2021/04/29 04:15:49;;;;;;;9.80;8.80;;;8.10;99.90;;;;;;5072976;28;20583;-65
2021/04/29 04:18:15;;;;;;;10.33;9.23;;;8.00;99.90;;;;;;5072633;28;20449;-65
2021/04/29 04:20:41;;;;;;;11.83;9.87;;;8.00;99.90;;;;;;5072642;28;20342;-64
2021/04/29 04:23:07;;;;;;;10.70;8.30;;;8.00;99.90;;;;;;5072865;28;20179;-65
2021/04/29 04:25:33;;;;;;;12.63;9.33;;;8.00;99.90;;;;;;5072800;28;20458;-65
2021/04/29 04:27:59;;;;;;;10.37;9.47;;;8.10;99.90;;;;;;5072733;28;20452;-65
2021/04/29 04:30:25;;;;;;;12.13;10.47;;;8.10;99.90;;;;;;5073084;28;20795;-63
2021/04/29 04:32:50;;;;;;;10.30;9.00;;;8.20;99.90;;;;;;5072691;28;20175;-62
2021/04/29 04:35:16;;;;;;;10.67;8.87;;;8.20;99.90;;;;;;5072471;28;20200;-62
2021/04/29 04:37:42;;;;;;;9.70;8.70;;;8.30;99.90;;;;;;5072287;28;20659;-62
2021/04/29 04:40:08;;;;;;;9.10;8.20;;;8.30;99.90;;;;;;5072275;28;20680;-63
2021/04/29 04:42:34;;;;;;;10.33;9.33;;;8.20;99.90;;;;;;5072711;28;20186;-62
2021/04/29 04:44:59;;;;;;;10.13;9.10;;;8.30;99.90;;;;;;5072412;28;20847;-64
2021/04/29 04:47:25;;;;;;;10.87;9.37;;;8.30;99.90;;;;;;5072380;28;20200;-65
2021/04/29 04:49:51;;;;;;;13.10;10.40;;;8.30;99.90;;;;;;5071768;28;20171;-63
2021/04/29 04:52:16;;;;;;;13.10;11.70;;;8.40;99.90;;;;;;5072328;28;20578;-63
2021/04/29 04:54:42;;;;;;;13.40;10.50;;;8.50;99.90;;;;;;5072715;28;20164;-63
2021/04/29 04:57:11;;;;;;;18.73;10.30;;;8.50;99.90;;;;;;5072268;28;20231;-63
2021/04/29 04:59:37;;;;;;;10.87;9.77;;;8.50;99.90;;;;;;5071768;28;20176;-62
2021/04/29 05:02:03;;;;;;;15.53;12.70;;;8.60;99.90;;;;;;5072094;28;20439;-63
2021/04/29 05:04:29;;;;;;;14.23;12.80;;;8.60;99.90;;;;;;5072024;28;20491;-61
2021/04/29 05:06:56;;;;;;;16.30;13.40;;;8.60;99.90;;;;;;5072338;28;20412;-63
2021/04/29 05:09:21;;;;;;;16.43;14.77;;;8.70;99.90;;;;;;5071704;28;20452;-61
2021/04/29 05:11:47;;;;;;;18.60;13.67;;;8.70;99.90;;;;;;5071998;28;20430;-61
2021/04/29 05:14:12;;;;;;;16.93;14.60;;;8.80;99.90;;;;;;5072235;28;20200;-63
2021/04/29 05:16:39;;;;;;;17.67;14.33;;;8.80;99.90;;;;;;5072342;28;20626;-64
2021/04/29 05:19:05;;;;;;;16.30;12.60;;;8.80;99.90;;;;;;5071455;28;20174;-63
2021/04/29 05:21:30;;;;;;;19.20;16.53;;;8.80;99.90;;;;;;5071832;28;20428;-63
2021/04/29 05:23:56;;;;;;;21.50;15.97;;;8.80;99.90;;;;;;5071992;28;20166;-63
2021/04/29 05:26:22;;;;;;;21.50;17.57;;;8.90;99.90;;;;;;5071880;28;20689;-62
2021/04/29 05:28:47;;;;;;;24.43;17.40;;;8.90;99.90;;;;;;5071489;28;20795;-63
2021/04/29 05:31:13;;;;;;;22.83;18.23;;;8.90;99.90;;;;;;5071744;28;20275;-63
2021/04/29 05:33:38;;;;;;;25.47;19.13;;;8.90;99.90;;;;;;5071710;28;20161;-64
2021/04/29 05:36:04;;;;;;;25.53;18.70;;;8.90;99.90;;;;;;5071988;28;20180;-61
2021/04/29 05:38:30;;;;;;;21.93;18.70;;;9.00;99.90;;;;;;5071480;28;20173;-63
2021/04/29 05:40:55;;;;;;;25.90;18.80;;;9.00;99.90;;;;;;5071606;28;20191;-63
2021/04/29 05:43:21;;;;;;;28.87;20.93;;;9.00;99.90;;;;;;5071748;28;20172;-65
2021/04/29 05:45:46;;;;;;;26.87;20.60;;;9.00;99.90;;;;;;5071636;28;20171;-62
2021/04/29 05:48:12;;;;;;;26.40;19.20;;;9.10;99.90;;;;;;5071059;28;20193;-67
2021/04/29 05:50:37;;;;;;;30.63;21.30;;;9.20;99.90;;;;;;5072885;28;20193;-65
2021/04/29 05:53:03;;;;;;;26.50;20.83;;;9.20;99.90;;;;;;5075159;28;20167;-60
2021/04/29 05:55:28;;;;;;;29.70;21.07;;;9.20;99.90;;;;;;5075764;28;20170;-62
2021/04/29 05:57:57;;;;;;;29.00;23.03;;;9.20;99.90;;;;;;5075722;28;20213;-62
2021/04/29 06:00:23;;;;;;;23.73;19.90;;;9.20;99.90;;;;;;5075214;28;20241;-62
2021/04/29 06:02:49;;;;;;;25.67;21.50;;;9.30;99.90;;;;;;5075884;28;20418;-63
2021/04/29 06:05:14;;;;;;;28.40;21.30;;;9.30;99.90;;;;;;5075539;28;20407;-62
2021/04/29 06:07:40;;;;;;;29.40;23.13;;;9.30;99.90;;;;;;5075356;28;20190;-62
2021/04/29 06:10:06;;;;;;;26.43;21.67;;;9.40;99.90;;;;;;5075063;28;20182;-61
2021/04/29 06:12:32;;;;;;;26.40;22.10;;;9.40;99.90;;;;;;5075290;28;20174;-65
2021/04/29 06:14:57;;;;;;;26.50;21.63;;;9.40;99.90;;;;;;5075380;28;20408;-60
2021/04/29 06:17:23;;;;;;;27.47;21.47;;;9.30;99.90;;;;;;5075145;28;20254;-63
2021/04/29 06:19:48;;;;;;;22.30;18.67;;;9.40;99.90;;;;;;5074805;28;20166;-62
2021/04/29 06:22:14;;;;;;;27.17;20.37;;;9.40;99.90;;;;;;5075122;28;20181;-64
2021/04/29 06:24:40;;;;;;;28.40;21.33;;;9.60;99.90;;;;;;5075287;28;20565;-62
2021/04/29 06:27:05;;;;;;;27.20;22.60;;;9.70;99.90;;;;;;5075046;28;20258;-62
2021/04/29 06:29:33;;;;;;;29.03;21.20;;;9.90;99.90;;;;;;5074587;28;20547;-62
2021/04/29 06:31:59;;;;;;;22.47;18.60;;;10.00;99.90;;;;;;5074720;28;20202;-63
2021/04/29 06:34:25;;;;;;;25.10;18.43;;;10.10;99.60;;;;;;5075077;28;20467;-62
2021/04/29 06:36:50;;;;;;;25.43;19.77;;;10.20;99.20;;;;;;5074863;28;20840;-63
2021/04/29 06:39:19;;;;;;;26.10;18.03;;;10.30;99.60;;;;;;5074521;28;20746;-62
2021/04/29 06:41:44;;;;;;;29.27;19.40;;;10.40;98.70;;;;;;5074661;28;20180;-60
2021/04/29 06:44:10;;;;;;;24.53;20.10;;;10.60;98.60;;;;;;5074761;28;20414;-59
2021/04/29 06:46:35;;;;;;;35.37;22.03;;;10.70;98.20;;;;;;5074657;28;20190;-62
2021/04/29 06:49:02;;;;;;;24.60;20.40;;;10.60;97.60;;;;;;5074206;28;20663;-63
2021/04/29 06:51:28;;;;;;;31.20;24.80;;;10.30;97.20;;;;;;5074845;28;20666;-62
2021/04/29 06:53:54;;;;;;;29.47;23.37;;;10.30;97.50;;;;;;5074600;28;20547;-62
2021/04/29 06:56:19;;;;;;;30.00;24.30;;;10.30;97.20;;;;;;5074596;28;20305;-65
2021/04/29 06:58:45;;;;;;;30.43;22.57;;;10.10;97.10;;;;;;5073929;28;20186;-59
2021/04/29 07:01:10;;;;;;;35.13;23.70;;;10.20;97.40;;;;;;5074112;28;20223;-59
2021/04/29 07:03:36;;;;;;;29.90;25.20;;;10.20;97.20;;;;;;5074480;28;20182;-58
2021/04/29 07:06:01;;;;;;;33.40;24.97;;;10.30;97.10;;;;;;5074473;28;20167;-57
2021/04/29 07:08:27;;;;;;;34.80;26.17;;;10.40;97.40;;;;;;5073840;28;20195;-55
2021/04/29 07:10:52;;;;;;;44.33;28.67;;;10.40;96.70;;;;;;5074366;28;20613;-58
2021/04/29 07:13:18;;;;;;;36.33;28.53;;;10.40;96.50;;;;;;5074281;28;20255;-56
2021/04/29 07:15:44;;;;;;;39.60;27.63;;;10.40;96.90;;;;;;5074236;28;20673;-58
2021/04/29 07:18:10;;;;;;;41.57;31.20;;;10.30;97.00;;;;;;5073859;28;20375;-61
2021/04/29 07:20:37;;;;;;;40.07;28.10;;;10.30;96.90;;;;;;5074151;28;20229;-62
2021/04/29 07:23:05;;;;;;;40.70;32.77;;;10.30;96.60;;;;;;5074215;28;20444;-61
2021/04/29 07:25:32;;;;;;;45.30;31.50;;;10.30;96.70;;;;;;5074161;28;20406;-58
2021/04/29 07:27:59;;;;;;;39.93;31.13;;;10.40;96.30;;;;;;5073809;28;20465;-60
2021/04/29 07:30:25;;;;;;;38.47;28.90;;;10.30;96.80;;;;;;5073517;28;20429;-65
2021/04/29 07:32:51;;;;;;;41.83;29.80;;;10.60;97.10;;;;;;5073837;28;20854;-63
2021/04/29 07:35:16;;;;;;;41.20;31.37;;;10.70;96.10;;;;;;5073878;28;20817;-61
2021/04/29 07:37:42;;;;;;;46.43;30.80;;;10.80;96.10;;;;;;5073805;28;20700;-63
2021/04/29 07:40:08;;;;;;;41.03;29.07;;;10.90;95.00;;;;;;5073516;28;20224;-59
2021/04/29 07:42:34;;;;;;;41.13;29.07;;;11.00;94.80;;;;;;5073862;28;20170;-56
2021/04/29 07:44:59;;;;;;;40.23;31.70;;;11.00;94.40;;;;;;5073537;28;20410;-59
2021/04/29 07:47:25;;;;;;;43.60;30.10;;;11.10;94.50;;;;;;5073593;28;20242;-62
2021/04/29 07:49:50;;;;;;;38.77;28.30;;;11.10;94.50;;;;;;5073132;28;20163;-60
2021/04/29 07:52:16;;;;;;;39.60;29.10;;;11.00;94.30;;;;;;5073613;28;20189;-62
2021/04/29 07:54:42;;;;;;;41.87;27.43;;;10.80;93.90;;;;;;5073418;28;20171;-59
2021/04/29 07:57:08;;;;;;;32.40;24.13;;;10.80;94.00;;;;;;5073513;28;20170;-59
2021/04/29 07:59:33;;;;;;;35.40;24.37;;;10.60;93.40;;;;;;5072706;28;20659;-61
2021/04/29 08:01:59;;;;;;;35.37;24.43;;;10.60;93.30;;;;;;5073520;28;20202;-63
2021/04/29 08:04:25;;;;;;;31.53;25.10;;;10.50;93.00;;;;;;5073273;28;20167;-63
2021/04/29 08:06:50;;;;;;;44.13;28.43;;;10.60;92.90;;;;;;5073299;28;20167;-60
2021/04/29 08:09:16;;;;;;;35.10;25.50;;;10.80;93.60;;;;;;5072642;28;20203;-60
2021/04/29 08:11:42;;;;;;;34.27;25.93;;;11.10;93.10;;;;;;5072856;28;20211;-64
2021/04/29 08:14:08;;;;;;;36.23;27.03;;;11.40;92.60;;;;;;5072641;28;20221;-56
2021/04/29 08:16:33;;;;;;;33.90;24.47;;;11.20;92.40;;;;;;5072968;28;20670;-63
2021/04/29 08:18:59;;;;;;;33.20;24.23;;;11.30;92.70;;;;;;5072559;28;20429;-64
2021/04/29 08:21:25;;;;;;;33.63;23.40;;;11.30;91.70;;;;;;5073006;28;20198;-65
2021/04/29 08:23:50;;;;;;;30.70;22.80;;;11.30;91.40;;;;;;5072854;28;20515;-65
2021/04/29 08:26:16;;;;;;;29.73;23.33;;;11.40;91.70;;;;;;5072892;28;20250;-64
2021/04/29 08:28:41;;;;;;;31.50;23.40;;;11.50;90.70;;;;;;5072236;28;20550;-64
2021/04/29 08:31:07;;;;;;;33.10;24.60;;;11.60;90.00;;;;;;5072684;28;20557;-61
2021/04/29 08:33:33;;;;;;;32.03;24.80;;;11.70;90.10;;;;;;5072862;28;20254;-62
2021/04/29 08:35:59;;;;;;;33.50;27.07;;;11.80;89.40;;;;;;5072528;28;20398;-62
2021/04/29 08:38:25;;;;;;;36.90;29.30;;;11.90;90.10;;;;;;5072300;28;20407;-64
2021/04/29 08:40:50;;;;;;;40.23;27.33;;;12.10;90.20;;;;;;5072214;28;20191;-61
2021/04/29 08:43:17;;;;;;;37.83;27.20;;;12.40;89.90;;;;;;5072503;28;20394;-61
2021/04/29 08:45:44;;;;;;;39.90;28.80;;;12.50;89.80;;;;;;5072365;28;20218;-59
2021/04/29 08:48:11;;;;;;;35.53;26.83;;;12.50;88.60;;;;;;5072266;28;20823;-63
2021/04/29 08:50:37;;;;;;;38.97;26.90;;;12.50;87.40;;;;;;5072324;28;20438;-60
2021/04/29 08:53:03;;;;;;;30.83;24.67;;;12.80;88.50;;;;;;5072404;28;20923;-57
2021/04/29 08:55:29;;;;;;;34.30;25.37;;;12.70;86.30;;;;;;5072292;28;20579;-61
2021/04/29 08:57:54;;;;;;;34.17;25.77;;;12.50;87.20;;;;;;5072121;28;20180;-61
2021/04/29 09:00:22;;;;;;;31.60;23.13;;;12.30;86.20;;;;;;5071714;28;20233;-63
2021/04/29 09:02:48;;;;;;;35.50;25.30;;;12.50;86.70;;;;;;5072180;28;20652;-64
2021/04/29 09:05:22;;;;;;;28.57;23.70;;;12.70;86.40;;;;;;5071990;28;20979;-60
2021/04/29 09:07:52;;;;;;;31.83;24.63;;;13.10;84.40;;;;;;5072009;28;20471;-64
2021/04/29 09:10:22;;;;;;;31.53;22.40;;;13.10;84.00;;;;;;5071686;28;20829;-63
2021/04/29 09:12:48;;;;;;;24.03;20.90;;;13.00;81.10;;;;;;5072085;28;20395;-60
2021/04/29 09:15:31;;;;;;;27.50;20.90;;;12.50;81.30;;;;;;5071930;28;20464;-60
2021/04/29 09:18:30;;;;;;;36.63;22.17;;;12.50;81.70;;;;;;5071988;28;20175;-63
2021/04/29 09:20:55;;;;;;;33.20;25.00;;;12.40;82.70;;;;;;5071682;28;20433;-63
2021/04/29 09:23:26;;;;;;;38.43;24.07;;;12.40;82.30;;;;;;5072117;28;20837;-61
2021/04/29 09:25:56;;;;;;;35.80;26.67;;;12.60;82.30;;;;;;5071893;28;20250;-61
2021/04/29 09:28:35;;;;;;;34.10;25.67;;;13.00;82.50;;;;;;5071456;28;20497;-60
2021/04/29 09:31:03;;;;;;;30.23;23.73;;;13.10;80.60;;;;;;5071676;28;20438;-61
2021/04/29 09:33:36;;;;;;;31.67;24.53;;;13.10;80.20;;;;;;5071822;28;20431;-59
2021/04/29 09:36:04;;;;;;;29.10;22.20;;;13.00;79.00;;;;;;5071808;28;20400;-59
2021/04/29 09:38:38;;;;;;;34.13;26.57;;;13.20;78.40;;;;;;5071410;28;20436;-61
2021/04/29 09:41:06;;;;;;;27.17;22.90;;;13.10;78.70;;;;;;5071706;28;20437;-61
2021/04/29 09:43:32;;;;;;;34.83;24.20;;;12.90;77.50;;;;;;5071728;28;20541;-63
2021/04/29 09:46:03;;;;;;;31.77;24.30;;;12.80;79.10;;;;;;5071594;28;20444;-59
2021/04/29 09:48:37;;;;;;;35.60;25.47;;;13.00;80.80;;;;;;5071203;28;20197;-62
2021/04/29 09:51:05;;;;;;;32.47;24.90;;;13.20;81.60;;;;;;5071452;28;20973;-64
2021/04/29 09:53:39;;;;;;;29.57;23.40;;;13.60;81.30;;;;;;5071680;28;20949;-61
2021/04/29 09:56:10;;;;;;;30.53;24.53;;;13.90;78.20;;;;;;5071517;28;20408;-59
2021/04/29 09:58:36;;;;;;;28.90;22.57;;;14.40;78.70;;;;;;5071221;28;20416;-63
2021/04/29 10:01:05;;;;;;;27.63;21.60;;;14.10;74.40;;;;;;5071820;28;20431;-64
2021/04/29 10:03:31;;;;;;;26.60;23.30;;;13.80;73.90;;;;;;5071580;28;20447;-64
2021/04/29 10:05:57;;;;;;;26.47;22.03;;;13.50;76.10;;;;;;5071449;28;20510;-63
2021/04/29 10:08:26;;;;;;;29.53;23.80;;;13.30;81.20;;;;;;5071107;28;20804;-63
2021/04/29 10:10:54;;;;;;;33.07;23.03;;;12.70;82.60;;;;;;5071179;28;20186;-63
2021/04/29 10:13:24;;;;;;;28.53;24.23;;;12.20;89.40;;;;;;5071451;28;20495;-65
2021/04/29 10:15:50;;;;;;;37.93;26.20;;;11.90;91.60;;;;;;5071296;28;20395;-62
2021/04/29 10:18:16;;;;;;;33.07;25.10;;;12.20;96.20;;;;;;5070988;28;20988;-64
2021/04/29 10:20:47;;;;;;;33.70;25.43;;;12.40;95.90;;;;;;5071352;28;20513;-63
2021/04/29 10:23:17;;;;;;;37.70;27.87;;;12.40;95.40;;;;;;5071249;28;20563;-63
2021/04/29 10:25:52;;;;;;;34.40;27.13;;;12.40;96.10;;;;;;5071524;28;20457;-61
2021/04/29 10:28:42;;;;;;;36.37;26.93;;;12.20;96.80;;;;;;5070662;28;20449;-63
2021/04/29 10:31:22;;;;;;;31.43;24.17;;;11.90;96.10;;;;;;5071851;28;20423;-62
2021/04/29 10:34:02;;;;;;;19.63;16.33;;;11.70;95.80;;;;;;5071630;28;20739;-63
2021/04/29 10:36:34;;;;;;;17.03;13.83;;;11.10;93.30;;;;;;5073534;28;20512;-62
2021/04/29 10:39:20;;;;;;;17.63;14.50;;;10.50;93.80;;;;;;5074977;28;20416;-62
2021/04/29 10:42:08;;;;;;;15.70;12.00;;;9.90;97.30;;;;;;5074724;28;20424;-62
2021/04/29 10:44:48;;;;;;;14.47;12.33;;;9.60;98.10;;;;;;5075181;28;20820;-62
2021/04/29 10:47:26;;;;;;;16.33;13.70;;;9.80;99.90;;;;;;5073414;28;20497;-62
2021/04/29 10:50:04;;;;;;;17.50;14.30;;;10.60;99.90;;;;;;5074427;28;20439;-60
2021/04/29 10:52:31;;;;;;;15.00;11.07;;;11.50;99.90;;;;;;5074571;28;20393;-62
2021/04/29 10:54:56;;;;;;;13.77;9.47;;;11.80;99.90;;;;;;5075044;28;20493;-62
2021/04/29 10:57:22;;;;;;;8.73;7.80;;;11.60;97.00;;;;;;5074681;28;20429;-61
2021/04/29 10:59:54;;;;;;;8.17;7.47;;;11.30;97.30;;;;;;5073907;28;20179;-65
2021/04/29 11:02:39;;;;;;;7.43;6.60;;;11.30;97.80;;;;;;5074522;28;20171;-63
2021/04/29 11:05:07;;;;;;;7.97;7.17;;;11.40;98.50;;;;;;5074155;28;20982;-63
2021/04/29 11:07:44;;;;;;;7.53;6.83;;;11.50;97.20;;;;;;5074389;28;20485;-60
2021/04/29 11:10:13;;;;;;;7.63;6.73;;;11.30;96.20;;;;;;5074083;28;20448;-62
2021/04/29 11:12:47;;;;;;;7.20;6.50;;;11.00;95.70;;;;;;5074441;28;20760;-59
2021/04/29 11:15:28;;;;;;;7.20;6.50;;;10.80;97.20;;;;;;5074282;28;20401;-63
2021/04/29 11:18:10;;;;;;;6.57;5.97;;;10.90;98.30;;;;;;5074089;28;20483;-62
2021/04/29 11:20:56;;;;;;;8.00;7.20;;;10.60;97.10;;;;;;5074174;28;20425;-60
2021/04/29 11:23:40;;;;;;;7.23;6.63;;;10.60;97.30;;;;;;5074034;28;20437;-60
2021/04/29 11:26:06;;;;;;;8.33;7.60;;;10.40;96.40;;;;;;5074234;28;20436;-62
2021/04/29 11:28:32;;;;;;;8.37;7.57;;;10.30;96.90;;;;;;5073504;28;20453;-60
2021/04/29 11:30:58;;;;;;;9.40;7.60;;;10.10;97.10;;;;;;5073990;28;20555;-60
2021/04/29 11:33:35;;;;;;;8.73;6.80;;;9.90;97.60;;;;;;5073899;28;20181;-57
2021/04/29 11:36:13;;;;;;;6.97;6.37;;;9.70;98.30;;;;;;5073940;28;20901;-62
2021/04/29 11:38:47;;;;;;;7.03;6.33;;;9.60;99.50;;;;;;5073356;28;20451;-63
2021/04/29 11:41:12;;;;;;;8.70;7.90;;;9.40;99.10;;;;;;5073747;28;20439;-60
2021/04/29 11:43:38;;;;;;;9.30;8.30;;;9.30;99.90;;;;;;5073649;28;20405;-61
2021/04/29 11:46:03;;;;;;;9.83;8.90;;;9.00;99.80;;;;;;5073764;28;20167;-62
2021/04/29 11:48:32;;;;;;;9.53;8.30;;;9.00;99.90;;;;;;5072057;28;20213;-62
2021/04/29 11:50:58;;;;;;;11.70;10.17;;;9.00;99.90;;;;;;5073396;28;20187;-61
2021/04/29 11:53:28;;;;;;;17.43;13.33;;;8.90;99.90;;;;;;5073649;28;20404;-60
2021/04/29 11:55:58;;;;;;;12.50;11.30;;;8.90;99.90;;;;;;5073416;28;20405;-62
2021/04/29 11:58:24;;;;;;;13.13;10.23;;;8.60;99.90;;;;;;5072972;28;20504;-63
2021/04/29 12:00:52;;;;;;;10.97;8.63;;;8.40;99.90;;;;;;5073439;28;20527;-62
2021/04/29 12:03:19;;;;;;;10.30;8.50;;;8.10;99.90;;;;;;5073135;28;20191;-63
2021/04/29 12:05:47;;;;;;;9.87;8.57;;;8.10;99.90;;;;;;5073696;28;20437;-62
2021/04/29 12:08:22;;;;;;;8.90;7.60;;;8.10;99.90;;;;;;5073537;28;20483;-60
2021/04/29 12:10:52;;;;;;;7.63;6.93;;;8.10;99.90;;;;;;5073128;28;20796;-60
2021/04/29 12:13:30;;;;;;;8.47;7.30;;;8.20;99.90;;;;;;5073203;28;20483;-63
2021/04/29 12:16:04;;;;;;;6.77;6.17;;;8.40;99.90;;;;;;5073105;28;20407;-61
2021/04/29 12:18:30;;;;;;;8.67;7.80;;;8.50;99.90;;;;;;5072772;28;20920;-60
2021/04/29 12:20:57;;;;;;;6.30;5.70;;;8.60;99.90;;;;;;5072739;28;20480;-65
2021/04/29 12:23:23;;;;;;;10.80;9.80;;;8.70;99.90;;;;;;5073008;28;20421;-63
2021/04/29 12:25:56;;;;;;;8.43;7.83;;;8.60;99.90;;;;;;5070890;28;20426;-62
2021/04/29 12:28:28;;;;;;;11.33;10.23;;;8.60;99.90;;;;;;5072130;28;20462;-64
2021/04/29 12:30:54;;;;;;;15.10;13.47;;;8.40;99.90;;;;;;5071355;28;20562;-62
2021/04/29 12:33:20;;;;;;;12.93;11.53;;;8.40;99.90;;;;;;5072567;28;20412;-62
2021/04/29 12:35:46;;;;;;;11.17;10.27;;;8.40;99.90;;;;;;5072312;28;20247;-62
2021/04/29 12:38:13;;;;;;;10.50;9.50;;;8.40;99.70;;;;;;5071775;28;20520;-63
2021/04/29 12:40:40;;;;;;;11.90;10.33;;;8.30;99.70;;;;;;5072176;28;20463;-63
2021/04/29 12:43:10;;;;;;;14.20;12.33;;;8.30;99.90;;;;;;5072781;28;20406;-63